createdAt,value
2018-07-09T00:00:22.388Z,16.46
2018-07-09T00:02:49.686Z,16.39
2018-07-09T00:05:16.982Z,16.35
2018-07-09T00:07:44.281Z,16.35
2018-07-09T00:10:12.674Z,16.36
2018-07-09T00:12:39.930Z,16.37
2018-07-09T00:15:09.958Z,16.37
2018-07-09T00:20:28.078Z,16.36
2018-07-09T00:22:55.359Z,16.33
2018-07-09T00:25:22.639Z,16.27
2018-07-09T00:27:49.943Z,16.19
2018-07-09T00:30:17.246Z,16.05
2018-07-09T00:32:44.554Z,15.97
2018-07-09T00:35:11.803Z,15.93
2018-07-09T00:37:39.040Z,15.93
2018-07-09T00:40:06.309Z,15.96
2018-07-09T00:42:33.806Z,15.91
2018-07-09T00:45:01.828Z,15.85
2018-07-09T00:47:29.862Z,15.59
2018-07-09T00:49:57.126Z,15.48
2018-07-09T00:52:24.379Z,15.41
2018-07-09T00:54:51.660Z,15.38
2018-07-09T00:57:18.930Z,15.38
2018-07-09T00:59:46.245Z,15.42
2018-07-09T01:02:13.497Z,15.47
2018-07-09T01:04:40.757Z,15.45
2018-07-09T01:07:08.039Z,15.41
2018-07-09T01:09:35.317Z,15.38
2018-07-09T01:12:10.430Z,15.35
2018-07-09T01:14:38.376Z,15.31
2018-07-09T01:17:05.697Z,15.30
2018-07-09T01:19:33.180Z,15.18
2018-07-09T01:22:00.740Z,15.05
2018-07-09T01:24:28.032Z,14.88
2018-07-09T01:26:55.340Z,14.88
2018-07-09T01:29:22.640Z,14.83
2018-07-09T01:31:49.945Z,14.75
2018-07-09T01:34:24.028Z,14.64
2018-07-09T01:36:51.291Z,14.61
2018-07-09T01:39:18.590Z,14.62
2018-07-09T01:41:45.895Z,14.60
2018-07-09T01:44:13.166Z,14.56
2018-07-09T01:46:40.419Z,14.53
2018-07-09T01:49:07.800Z,14.56
2018-07-09T01:51:35.378Z,14.60
2018-07-09T01:54:02.660Z,14.59
2018-07-09T01:56:29.995Z,14.62
2018-07-09T01:58:57.285Z,14.63
2018-07-09T02:01:24.572Z,14.56
2018-07-09T02:03:51.805Z,14.54
2018-07-09T02:06:19.069Z,14.50
2018-07-09T02:08:46.335Z,14.47
2018-07-09T02:11:13.658Z,14.40
2018-07-09T02:13:41.031Z,14.38
2018-07-09T02:16:08.281Z,14.40
2018-07-09T02:18:35.558Z,14.41
2018-07-09T02:21:02.937Z,14.36
2018-07-09T02:23:30.181Z,14.35
2018-07-09T02:25:57.447Z,14.29
2018-07-09T02:28:24.720Z,14.24
2018-07-09T02:30:51.999Z,14.18
2018-07-09T02:33:19.428Z,14.18
2018-07-09T02:35:46.690Z,14.15
2018-07-09T02:38:14.009Z,14.17
2018-07-09T02:40:41.305Z,14.14
2018-07-09T02:43:08.567Z,13.93
2018-07-09T02:45:36.160Z,13.84
2018-07-09T02:48:03.470Z,13.89
2018-07-09T02:50:30.790Z,13.94
2018-07-09T02:52:58.162Z,13.91
2018-07-09T02:55:25.539Z,13.91
2018-07-09T02:57:52.869Z,13.90
2018-07-09T03:00:20.214Z,13.88
2018-07-09T03:02:47.756Z,13.90
2018-07-09T03:05:15.130Z,13.89
2018-07-09T03:07:42.461Z,13.92
2018-07-09T03:10:09.882Z,13.88
2018-07-09T03:12:37.215Z,13.88
2018-07-09T03:15:04.652Z,13.94
2018-07-09T03:17:32.177Z,13.95
2018-07-09T03:20:00.899Z,13.99
2018-07-09T03:22:29.610Z,14.01
2018-07-09T03:24:57.979Z,14.11
2018-07-09T03:27:25.462Z,14.18
2018-07-09T03:29:53.428Z,14.23
2018-07-09T03:32:20.778Z,14.34
2018-07-09T03:34:48.106Z,14.44
2018-07-09T03:37:15.588Z,14.56
2018-07-09T03:39:42.949Z,14.67
2018-07-09T03:42:10.314Z,14.80
2018-07-09T03:44:37.957Z,14.91
2018-07-09T03:47:06.611Z,15.01
2018-07-09T03:49:33.967Z,15.08
2018-07-09T03:52:01.429Z,15.15
2018-07-09T03:54:28.778Z,15.26
2018-07-09T03:56:56.150Z,15.35
2018-07-09T03:59:23.676Z,15.40
2018-07-09T04:01:51.095Z,15.43
2018-07-09T04:04:18.965Z,15.48
2018-07-09T04:06:46.359Z,15.52
2018-07-09T04:09:13.790Z,15.61
2018-07-09T04:11:41.152Z,15.67
2018-07-09T04:14:09.127Z,15.76
2018-07-09T04:16:36.435Z,15.82
2018-07-09T04:19:05.298Z,15.85
2018-07-09T04:21:32.872Z,15.86
2018-07-09T04:24:00.143Z,15.95
2018-07-09T04:26:27.578Z,16.04
2018-07-09T04:28:54.897Z,16.11
2018-07-09T04:31:22.440Z,16.15
2018-07-09T04:33:50.774Z,16.29
2018-07-09T04:36:18.091Z,16.43
2018-07-09T04:38:46.037Z,16.52
2018-07-09T04:41:13.265Z,16.57
2018-07-09T04:43:40.610Z,16.67
2018-07-09T04:46:07.983Z,16.72
2018-07-09T04:48:35.386Z,16.65
2018-07-09T04:51:02.879Z,16.63
2018-07-09T04:53:30.279Z,16.61
2018-07-09T04:55:58.272Z,16.62
2018-07-09T04:58:25.607Z,16.58
2018-07-09T05:00:53.013Z,16.60
2018-07-09T05:03:20.354Z,16.77
2018-07-09T05:05:47.715Z,16.79
2018-07-09T05:08:15.064Z,16.92
2018-07-09T05:10:42.424Z,17.04
2018-07-09T05:13:09.936Z,17.16
2018-07-09T05:15:37.297Z,17.15
2018-07-09T05:18:06.327Z,17.19
2018-07-09T05:20:33.680Z,17.21
2018-07-09T05:23:01.039Z,17.30
2018-07-09T05:25:28.446Z,17.29
2018-07-09T05:27:55.828Z,17.42
2018-07-09T05:30:23.190Z,17.86
2018-07-09T05:32:50.548Z,18.17
2018-07-09T05:35:17.938Z,18.38
2018-07-09T05:37:46.235Z,18.36
2018-07-09T05:40:13.689Z,18.55
2018-07-09T05:42:41.229Z,18.80
2018-07-09T05:45:08.678Z,19.16
2018-07-09T05:47:36.387Z,19.32
2018-07-09T05:50:06.705Z,19.32
2018-07-09T05:52:34.063Z,19.67
2018-07-09T05:55:01.389Z,19.94
2018-07-09T05:57:28.796Z,20.22
2018-07-09T05:59:56.134Z,20.39
2018-07-09T06:02:23.520Z,20.42
2018-07-09T06:04:50.908Z,20.73
2018-07-09T06:07:18.487Z,20.81
2018-07-09T06:09:45.950Z,21.05
2018-07-09T06:12:14.271Z,20.94
2018-07-09T06:14:41.685Z,21.17
2018-07-09T06:17:09.031Z,21.68
2018-07-09T06:19:36.452Z,21.47
2018-07-09T06:22:03.889Z,22.05
2018-07-09T06:24:31.245Z,22.54
2018-07-09T06:26:58.577Z,22.15
2018-07-09T06:29:26.006Z,22.31
2018-07-09T06:31:53.439Z,22.52
2018-07-09T06:34:21.607Z,22.72
2018-07-09T06:36:49.019Z,22.36
2018-07-09T06:39:16.953Z,22.69
2018-07-09T06:41:44.386Z,22.79
2018-07-09T06:44:11.777Z,23.57
2018-07-09T06:46:40.213Z,23.08
2018-07-09T06:49:08.078Z,23.29
2018-07-09T06:51:35.475Z,23.59
2018-07-09T06:54:02.898Z,23.56
2018-07-09T06:56:30.328Z,23.20
2018-07-09T06:58:58.353Z,23.89
2018-07-09T07:01:26.431Z,23.60
2018-07-09T07:03:53.837Z,23.75
2018-07-09T07:06:21.192Z,23.56
2018-07-09T07:08:48.645Z,24.02
2018-07-09T07:11:16.041Z,23.95
2018-07-09T07:13:43.399Z,23.49
2018-07-09T07:16:10.850Z,23.62
2018-07-09T07:18:38.217Z,23.33
2018-07-09T07:21:05.831Z,22.78
2018-07-09T07:23:33.135Z,22.83
2018-07-09T07:26:00.422Z,22.78
2018-07-09T07:28:27.722Z,23.11
2018-07-09T07:30:55.110Z,23.57
2018-07-09T07:33:22.873Z,24.10
2018-07-09T07:35:50.239Z,24.12
2018-07-09T07:38:17.557Z,24.76
2018-07-09T07:40:45.627Z,24.77
2018-07-09T07:43:13.409Z,25.12
2018-07-09T07:45:40.770Z,25.69
2018-07-09T07:48:08.075Z,25.52
2018-07-09T07:50:36.260Z,25.08
2018-07-09T07:53:03.611Z,25.42
2018-07-09T07:55:30.999Z,25.18
2018-07-09T07:57:58.298Z,25.34
2018-07-09T08:00:25.642Z,25.15
2018-07-09T08:02:53.023Z,24.48
2018-07-09T08:05:20.358Z,24.62
2018-07-09T08:07:47.674Z,24.71
2018-07-09T08:10:15.068Z,24.70
2018-07-09T08:15:09.851Z,25.40
2018-07-09T08:17:37.275Z,25.42
2018-07-09T08:20:05.529Z,25.33
2018-07-09T08:22:32.955Z,24.35
2018-07-09T08:25:00.441Z,23.72
2018-07-09T08:27:27.949Z,23.65
2018-07-09T08:29:55.354Z,24.50
2018-07-09T08:32:22.849Z,24.99
2018-07-09T08:34:50.315Z,24.53
2018-07-09T08:37:17.705Z,24.45
2018-07-09T08:39:45.240Z,23.92
2018-07-09T08:42:12.619Z,24.03
2018-07-09T08:44:40.466Z,24.95
2018-07-09T08:47:07.863Z,25.21
2018-07-09T08:49:35.335Z,26.30
2018-07-09T08:52:02.848Z,25.91
2018-07-09T08:54:30.150Z,25.80
2018-07-09T08:57:10.581Z,25.68
2018-07-09T08:59:37.954Z,26.33
2018-07-09T09:02:05.924Z,26.47
2018-07-09T09:04:33.276Z,26.79
2018-07-09T09:07:00.708Z,27.36
2018-07-09T09:09:28.114Z,26.54
2018-07-09T09:11:55.492Z,25.70
2018-07-09T09:14:23.091Z,26.33
2018-07-09T09:16:50.485Z,27.01
2018-07-09T09:19:17.814Z,26.63
2018-07-09T09:21:45.963Z,26.05
2018-07-09T09:24:13.329Z,26.21
2018-07-09T09:26:40.921Z,26.41
2018-07-09T09:29:08.266Z,26.93
2018-07-09T09:31:35.739Z,26.99
2018-07-09T09:34:03.122Z,27.53
2018-07-09T09:36:30.490Z,27.25
2018-07-09T09:38:57.939Z,27.69
2018-07-09T09:41:25.747Z,28.13
2018-07-09T09:43:53.178Z,27.05
2018-07-09T09:46:20.571Z,28.05
2018-07-09T09:48:48.645Z,27.48
2018-07-09T09:51:16.010Z,26.93
2018-07-09T09:53:43.402Z,26.77
2018-07-09T09:56:10.766Z,27.31
2018-07-09T09:58:38.279Z,27.95
2018-07-09T10:01:06.043Z,27.13
2018-07-09T10:03:33.482Z,27.56
2018-07-09T10:06:01.860Z,27.26
2018-07-09T10:08:29.295Z,27.33
2018-07-09T10:10:56.705Z,28.02
2018-07-09T10:13:24.069Z,28.48
2018-07-09T10:15:51.490Z,28.95
2018-07-09T10:18:18.996Z,28.12
2018-07-09T10:20:46.334Z,28.79
2018-07-09T10:23:13.869Z,29.27
2018-07-09T10:25:41.095Z,29.45
2018-07-09T10:28:08.458Z,29.23
2018-07-09T10:30:35.768Z,29.05
2018-07-09T10:33:04.142Z,29.21
2018-07-09T10:35:32.180Z,29.24
2018-07-09T10:37:59.552Z,28.73
2018-07-09T10:40:26.884Z,28.95
2018-07-09T10:42:54.243Z,29.79
2018-07-09T10:45:22.341Z,30.16
2018-07-09T10:47:49.665Z,30.57
2018-07-09T10:50:17.009Z,30.14
2018-07-09T10:52:44.348Z,30.26
2018-07-09T10:55:11.717Z,29.62
2018-07-09T10:57:39.103Z,29.96
2018-07-09T11:00:06.558Z,30.19
2018-07-09T11:02:33.975Z,30.69
2018-07-09T11:05:01.324Z,30.60
2018-07-09T11:07:28.672Z,30.36
2018-07-09T11:09:56.110Z,30.36
2018-07-09T11:12:23.651Z,29.96
2018-07-09T11:14:51.046Z,29.46
2018-07-09T11:17:18.316Z,29.07
2018-07-09T11:19:45.649Z,29.05
2018-07-09T11:22:13.029Z,29.58
2018-07-09T11:24:40.401Z,29.99
2018-07-09T11:27:07.702Z,30.10
2018-07-09T11:29:35.147Z,30.72
2018-07-09T11:32:02.555Z,31.24
2018-07-09T11:34:29.933Z,31.64
2018-07-09T11:36:57.251Z,31.87
2018-07-09T11:39:24.713Z,32.17
2018-07-09T11:41:52.086Z,31.35
2018-07-09T11:44:19.438Z,30.51
2018-07-09T11:46:46.801Z,30.80
2018-07-09T11:49:14.142Z,30.84
2018-07-09T11:51:42.395Z,30.93
2018-07-09T11:54:09.730Z,30.54
2018-07-09T11:56:37.045Z,30.94
2018-07-09T11:59:04.954Z,30.79
2018-07-09T12:01:32.285Z,30.59
2018-07-09T12:03:59.646Z,29.96
2018-07-09T12:06:27.017Z,30.37
2018-07-09T12:08:54.382Z,30.14
2018-07-09T12:11:22.463Z,30.20
2018-07-09T12:13:49.844Z,30.84
2018-07-09T12:16:17.915Z,30.63
2018-07-09T12:18:45.309Z,30.87
2018-07-09T12:21:13.699Z,30.99
2018-07-09T12:23:47.751Z,31.22
2018-07-09T12:26:15.111Z,31.59
2018-07-09T12:28:42.655Z,31.07
2018-07-09T12:31:09.974Z,31.20
2018-07-09T12:33:37.321Z,30.43
2018-07-09T12:36:06.008Z,30.55
2018-07-09T12:38:33.447Z,30.46
2018-07-09T12:41:00.883Z,30.60
2018-07-09T12:43:28.325Z,30.04
2018-07-09T12:45:56.358Z,30.54
2018-07-09T12:48:23.727Z,31.00
2018-07-09T12:50:51.110Z,30.08
2018-07-09T12:53:18.451Z,30.28
2018-07-09T12:55:45.902Z,30.45
2018-07-09T12:58:13.345Z,30.34
2018-07-09T13:00:40.817Z,30.53
2018-07-09T13:03:08.384Z,30.54
2018-07-09T13:05:35.882Z,30.31
2018-07-09T13:08:03.254Z,30.22
2018-07-09T13:10:30.858Z,30.53
2018-07-09T13:12:58.255Z,30.36
2018-07-09T13:15:25.587Z,30.94
2018-07-09T13:17:53.044Z,31.00
2018-07-09T13:20:20.550Z,30.92
2018-07-09T13:22:48.896Z,30.68
2018-07-09T13:25:16.253Z,30.77
2018-07-09T13:27:43.644Z,30.43
2018-07-09T13:30:10.967Z,30.65
2018-07-09T13:32:38.903Z,30.52
2018-07-09T13:35:06.827Z,30.05
2018-07-09T13:37:34.144Z,30.32
2018-07-09T13:40:01.480Z,29.78
2018-07-09T13:42:28.859Z,29.76
2018-07-09T13:44:57.942Z,30.18
2018-07-09T13:47:25.594Z,30.50
2018-07-09T13:49:53.401Z,29.98
2018-07-09T13:52:21.019Z,29.22
2018-07-09T13:54:48.397Z,28.84
2018-07-09T13:57:15.759Z,29.15
2018-07-09T13:59:43.113Z,29.19
2018-07-09T14:02:10.540Z,29.09
2018-07-09T14:04:38.704Z,29.26
2018-07-09T14:07:08.279Z,29.11
2018-07-09T14:09:35.635Z,29.06
2018-07-09T14:12:03.011Z,28.61
2018-07-09T14:14:30.455Z,28.47
2018-07-09T14:16:57.842Z,27.98
2018-07-09T14:20:35.515Z,27.68
2018-07-09T14:23:03.445Z,27.76
2018-07-09T14:25:31.424Z,27.33
2018-07-09T14:27:58.746Z,27.07
2018-07-09T14:30:26.134Z,27.14
2018-07-09T14:32:53.479Z,27.22
2018-07-09T14:35:20.836Z,27.06
2018-07-09T14:37:48.298Z,26.88
2018-07-09T14:40:15.606Z,27.02
2018-07-09T14:42:43.090Z,27.00
2018-07-09T14:45:11.040Z,27.03
2018-07-09T14:47:39.097Z,26.65
2018-07-09T14:50:08.618Z,26.62
2018-07-09T14:52:36.031Z,26.36
2018-07-09T14:55:03.521Z,26.50
2018-07-09T14:57:30.875Z,26.19
2018-07-09T14:59:58.282Z,25.98
2018-07-09T15:02:25.672Z,25.62
2018-07-09T15:04:53.193Z,25.53
2018-07-09T15:07:20.538Z,25.76
2018-07-09T15:09:47.938Z,25.32
2018-07-09T15:12:15.299Z,25.49
2018-07-09T15:14:42.634Z,25.28
2018-07-09T15:17:10.357Z,25.20
2018-07-09T15:19:37.779Z,25.28
2018-07-09T15:22:06.374Z,25.06
2018-07-09T15:24:33.797Z,25.05
2018-07-09T15:27:02.000Z,24.84
2018-07-09T15:29:29.342Z,24.50
2018-07-09T15:32:08.708Z,24.39
2018-07-09T15:34:36.417Z,24.43
2018-07-09T15:37:04.380Z,24.59
2018-07-09T15:39:31.758Z,24.32
2018-07-09T15:41:59.206Z,24.18
2018-07-09T15:44:26.640Z,24.52
2018-07-09T15:46:54.097Z,24.56
2018-07-09T15:49:21.545Z,24.82
2018-07-09T15:51:49.646Z,24.52
2018-07-09T15:54:17.034Z,24.44
2018-07-09T15:56:44.436Z,24.79
2018-07-09T15:59:11.812Z,24.68
2018-07-09T16:01:39.163Z,24.51
2018-07-09T16:04:06.976Z,24.22
2018-07-09T16:06:34.357Z,24.13
2018-07-09T16:09:01.814Z,23.91
2018-07-09T16:11:29.207Z,23.91
2018-07-09T16:13:57.177Z,24.03
2018-07-09T16:16:25.803Z,24.08
2018-07-09T16:18:53.186Z,24.01
2018-07-09T16:21:20.799Z,23.90
2018-07-09T16:23:48.174Z,23.65
2018-07-09T16:26:15.533Z,23.73
2018-07-09T16:28:42.969Z,23.69
2018-07-09T16:31:10.284Z,23.62
2018-07-09T16:33:37.639Z,23.55
2018-07-09T16:36:05.128Z,23.53
2018-07-09T16:38:32.496Z,23.36
2018-07-09T16:41:00.254Z,23.47
2018-07-09T16:43:28.653Z,23.21
2018-07-09T16:45:57.146Z,23.18
2018-07-09T16:48:25.285Z,23.23
2018-07-09T16:50:53.309Z,23.27
2018-07-09T16:53:21.113Z,23.40
2018-07-09T16:55:49.302Z,23.67
2018-07-09T16:58:17.508Z,23.69
2018-07-09T17:00:45.578Z,23.72
2018-07-09T17:03:14.212Z,23.89
2018-07-09T17:05:42.609Z,23.87
2018-07-09T17:08:11.891Z,23.89
2018-07-09T17:10:39.976Z,23.91
2018-07-09T17:13:07.801Z,23.69
2018-07-09T17:15:36.126Z,23.43
2018-07-09T17:18:05.504Z,23.52
2018-07-09T17:20:33.489Z,23.24
2018-07-09T17:23:02.104Z,23.26
2018-07-09T17:25:30.372Z,23.22
2018-07-09T17:27:59.898Z,23.00
2018-07-09T17:30:28.861Z,22.97
2018-07-09T17:32:57.040Z,22.81
2018-07-09T17:35:25.279Z,22.68
2018-07-09T17:37:54.146Z,22.64
2018-07-09T17:40:22.330Z,22.64
2018-07-09T17:42:50.192Z,22.53
2018-07-09T17:45:17.677Z,22.61
2018-07-09T17:47:46.083Z,22.41
2018-07-09T17:50:14.121Z,22.34
2018-07-09T17:52:42.754Z,22.41
2018-07-09T17:55:10.856Z,22.30
2018-07-09T17:57:38.454Z,22.31
2018-07-09T18:00:07.071Z,22.14
2018-07-09T18:02:35.209Z,22.02
2018-07-09T18:05:04.559Z,22.13
2018-07-09T18:07:34.178Z,21.96
2018-07-09T18:10:02.496Z,21.96
2018-07-09T18:12:32.145Z,21.94
2018-07-09T18:15:00.708Z,21.99
2018-07-09T18:17:31.663Z,21.98
2018-07-09T18:20:00.414Z,21.97
2018-07-09T18:22:36.079Z,21.96
2018-07-09T18:25:13.792Z,22.02
2018-07-09T18:27:49.571Z,21.96
2018-07-09T18:30:23.814Z,21.96
2018-07-09T18:32:52.596Z,21.90
2018-07-09T18:35:21.824Z,21.92
2018-07-09T18:37:51.895Z,21.91
2018-07-09T18:40:22.233Z,21.90
2018-07-09T18:42:54.807Z,21.90
2018-07-09T18:45:24.054Z,21.91
2018-07-09T18:47:54.537Z,21.86
2018-07-09T18:50:22.139Z,21.82
2018-07-09T18:52:51.172Z,21.67
2018-07-09T18:55:19.342Z,21.47
2018-07-09T18:57:47.922Z,21.41
2018-07-09T19:00:15.508Z,21.38
2018-07-09T19:02:44.541Z,21.32
2018-07-09T19:05:13.898Z,21.32
2018-07-09T19:07:43.002Z,21.27
2018-07-09T19:10:12.152Z,21.17
2018-07-09T19:12:42.347Z,21.18
2018-07-09T19:15:10.111Z,21.24
2018-07-09T19:18:04.572Z,21.18
2018-07-09T19:20:43.490Z,21.16
2018-07-09T19:23:10.726Z,21.09
2018-07-09T19:25:37.791Z,21.06
2018-07-09T19:28:06.222Z,21.12
2018-07-09T19:30:32.965Z,20.95
2018-07-09T19:33:00.091Z,20.82
2018-07-09T19:35:27.900Z,20.89
2018-07-09T19:37:54.776Z,20.91
2018-07-09T19:40:21.204Z,20.81
2018-07-09T19:42:47.972Z,20.81
2018-07-09T19:45:21.406Z,20.69
2018-07-09T19:47:47.923Z,20.63
2018-07-09T19:50:14.645Z,20.60
2018-07-09T19:52:40.945Z,20.54
2018-07-09T19:55:11.717Z,20.59
2018-07-09T19:57:38.742Z,20.66
2018-07-09T20:00:05.145Z,20.67
2018-07-09T20:02:31.584Z,20.63
2018-07-09T20:04:59.078Z,20.58
2018-07-09T20:07:25.495Z,20.50
2018-07-09T20:09:57.395Z,20.47
2018-07-09T20:12:29.335Z,20.43
2018-07-09T20:15:01.652Z,20.38
2018-07-09T20:17:29.484Z,20.36
2018-07-09T20:19:55.937Z,20.39
2018-07-09T20:22:22.329Z,20.44
2018-07-09T20:24:48.630Z,20.48
2018-07-09T20:27:14.872Z,20.51
2018-07-09T20:29:41.118Z,20.48
2018-07-09T20:32:07.518Z,20.49
2018-07-09T20:34:33.751Z,20.47
2018-07-09T20:36:59.994Z,20.46
2018-07-09T20:39:26.223Z,20.45
2018-07-09T20:41:52.462Z,20.46
2018-07-09T20:44:18.685Z,20.46
2018-07-09T20:46:44.949Z,20.45
2018-07-09T20:49:11.169Z,20.48
2018-07-09T20:51:37.425Z,20.51
2018-07-09T20:54:03.705Z,20.44
2018-07-09T20:56:29.965Z,20.40
2018-07-09T20:58:56.206Z,20.37
2018-07-09T21:01:22.467Z,20.30
2018-07-09T21:03:53.259Z,20.24
2018-07-09T21:06:19.514Z,20.18
2018-07-09T21:08:46.151Z,20.21
2018-07-09T21:11:12.419Z,20.24
2018-07-09T21:13:38.647Z,20.24
2018-07-09T21:16:05.093Z,20.27
2018-07-09T21:18:32.151Z,20.28
2018-07-09T21:20:58.406Z,20.26
2018-07-09T21:23:24.622Z,20.25
2018-07-09T21:25:50.867Z,20.23
2018-07-09T21:28:17.101Z,20.21
2018-07-09T21:30:43.335Z,20.24
2018-07-09T21:33:09.595Z,20.23
2018-07-09T21:35:35.863Z,20.30
2018-07-09T21:38:02.151Z,20.26
2018-07-09T21:40:28.400Z,20.33
2018-07-09T21:42:54.675Z,20.20
2018-07-09T21:45:20.910Z,20.04
2018-07-09T21:47:47.156Z,19.93
2018-07-09T21:50:13.390Z,19.81
2018-07-09T21:52:39.645Z,19.80
2018-07-09T21:55:06.467Z,19.75
2018-07-09T21:57:32.729Z,19.69
2018-07-09T21:59:58.978Z,19.74
2018-07-09T22:02:25.290Z,19.68
2018-07-09T22:04:51.538Z,19.59
2018-07-09T22:07:17.794Z,19.52
2018-07-09T22:09:44.062Z,19.48
2018-07-09T22:12:10.334Z,19.37
2018-07-09T22:14:36.573Z,19.38
2018-07-09T22:17:02.830Z,19.39
2018-07-09T22:19:29.071Z,19.38
2018-07-09T22:21:55.315Z,19.32
2018-07-09T22:24:21.592Z,19.30
2018-07-09T22:26:47.837Z,19.25
2018-07-09T22:29:14.082Z,19.29
2018-07-09T22:31:41.365Z,19.35
2018-07-09T22:34:08.615Z,19.38
2018-07-09T22:36:35.915Z,19.40
2018-07-09T22:39:04.153Z,19.41
2018-07-09T22:41:31.405Z,19.38
2018-07-09T22:44:10.178Z,19.40
2018-07-09T22:46:37.453Z,19.40
2018-07-09T22:49:05.450Z,19.46
2018-07-09T22:51:32.699Z,19.51
2018-07-09T22:53:59.950Z,19.52
2018-07-09T22:56:27.206Z,19.51
2018-07-09T22:58:54.460Z,19.43
2018-07-09T23:01:21.715Z,19.39
2018-07-09T23:03:48.973Z,19.38
2018-07-09T23:06:16.213Z,19.24
2018-07-09T23:08:43.509Z,19.24
2018-07-09T23:11:22.335Z,19.24
2018-07-09T23:17:08.761Z,19.28
2018-07-09T23:21:55.112Z,19.23
2018-07-09T23:24:21.377Z,19.03
2018-07-09T23:26:47.638Z,19.01
2018-07-09T23:29:13.903Z,18.94
2018-07-09T23:31:40.155Z,18.91
2018-07-09T23:34:06.441Z,18.82
2018-07-09T23:36:32.731Z,18.79
2018-07-09T23:38:59.023Z,18.73
2018-07-09T23:41:25.968Z,18.66
2018-07-09T23:43:52.225Z,18.59
2018-07-09T23:46:18.457Z,18.42
2018-07-09T23:48:44.680Z,18.33
2018-07-09T23:51:10.959Z,18.15
2018-07-09T23:53:37.195Z,17.86
2018-07-09T23:57:23.706Z,17.77
